createdAt,value
2019-04-28T00:01:18.506Z,100155.43
2019-04-28T00:03:51.545Z,100160.20
2019-04-28T00:06:24.093Z,100150.07
2019-04-28T00:08:55.197Z,100146.27
2019-04-28T00:11:26.592Z,100144.00
2019-04-28T00:13:57.749Z,100145.70
2019-04-28T00:16:31.069Z,100146.67
2019-04-28T00:19:02.080Z,100142.36
2019-04-28T00:21:46.907Z,100141.13
2019-04-28T00:24:23.253Z,100137.13
2019-04-28T00:26:56.038Z,100134.66
2019-04-28T00:29:40.071Z,100143.25
2019-04-28T00:32:01.603Z,100138.67
2019-04-28T00:34:33.916Z,100145.15
2019-04-28T00:37:11.202Z,100141.89
2019-04-28T00:39:42.341Z,100145.14
2019-04-28T00:42:13.393Z,100130.75
2019-04-28T00:44:44.675Z,100130.65
2019-04-28T00:47:15.946Z,100131.98
2019-04-28T00:49:47.176Z,100117.09
2019-04-28T00:52:19.151Z,100118.27
2019-04-28T00:54:50.198Z,100115.50
2019-04-28T00:57:21.342Z,100109.88
2019-04-28T00:59:57.957Z,100109.89
2019-04-28T01:02:33.196Z,100104.34
2019-04-28T01:05:17.153Z,100106.82
2019-04-28T01:07:48.953Z,100106.27
2019-04-28T01:10:21.162Z,100113.23
2019-04-28T01:12:52.401Z,100102.45
2019-04-28T01:15:25.225Z,100103.30
2019-04-28T01:18:06.853Z,100111.98
2019-04-28T01:20:39.665Z,100112.83
2019-04-28T01:23:10.931Z,100116.73
2019-04-28T01:25:42.049Z,100129.69
2019-04-28T01:28:13.203Z,100113.69
2019-04-28T01:30:50.054Z,100111.97
2019-04-28T01:33:22.909Z,100102.13
2019-04-28T01:35:54.024Z,100090.12
2019-04-28T01:38:25.178Z,100050.13
2019-04-28T01:40:56.339Z,100028.69
2019-04-28T01:43:29.198Z,100041.25
2019-04-28T01:46:00.349Z,100044.56
2019-04-28T01:48:31.632Z,100041.34
2019-04-28T01:51:02.769Z,100031.53
2019-04-28T01:53:33.781Z,100036.28
2019-04-28T01:56:04.866Z,100033.02
2019-04-28T01:58:36.010Z,100031.14
2019-04-28T02:01:07.053Z,100032.86
2019-04-28T02:03:40.469Z,100035.53
2019-04-28T02:06:11.817Z,100032.57
2019-04-28T02:08:43.233Z,100034.94
2019-04-28T02:11:14.660Z,100038.16
2019-04-28T02:13:45.804Z,100040.47
2019-04-28T02:16:16.929Z,100036.08
2019-04-28T02:18:49.700Z,100034.00
2019-04-28T02:21:22.750Z,100036.82
2019-04-28T02:23:55.559Z,100043.87
2019-04-28T02:26:26.960Z,100037.80
2019-04-28T02:28:58.170Z,100031.69
2019-04-28T02:31:31.730Z,100029.12
2019-04-28T02:34:02.110Z,100029.61
2019-04-28T02:36:33.418Z,100028.47
2019-04-28T02:39:05.543Z,100024.83
2019-04-28T02:41:37.211Z,100030.16
2019-04-28T02:44:10.421Z,100026.95
2019-04-28T02:46:41.157Z,100026.55
2019-04-28T02:49:20.325Z,100029.80
2019-04-28T02:51:53.319Z,100031.49
2019-04-28T02:54:24.456Z,100037.99
2019-04-28T02:56:55.672Z,100037.60
2019-04-28T02:59:26.729Z,100034.35
2019-04-28T03:02:00.476Z,100036.08
2019-04-28T03:04:31.034Z,100034.55
2019-04-28T03:07:02.144Z,100030.16
2019-04-28T03:09:33.271Z,100031.48
2019-04-28T03:12:04.566Z,100033.02
2019-04-28T03:14:35.540Z,100032.08
2019-04-28T03:17:06.622Z,100034.16
2019-04-28T03:19:37.586Z,100031.69
2019-04-28T03:22:11.623Z,100035.50
2019-04-28T03:24:42.744Z,100035.43
2019-04-28T03:27:15.566Z,100038.84
2019-04-28T03:29:50.392Z,100029.80
2019-04-28T03:32:45.362Z,100033.41
2019-04-28T03:35:12.423Z,100026.66
2019-04-28T03:37:41.376Z,100025.22
2019-04-28T03:40:12.687Z,100022.56
2019-04-28T03:42:43.689Z,100028.18
2019-04-28T03:45:16.483Z,100033.41
2019-04-28T03:47:50.722Z,100039.53
2019-04-28T03:50:20.503Z,100045.55
2019-04-28T03:52:51.582Z,100042.58
2019-04-28T03:55:22.621Z,100050.67
2019-04-28T03:57:53.713Z,100046.77
2019-04-28T04:00:25.131Z,100044.30
2019-04-28T04:02:56.288Z,100036.69
2019-04-28T04:05:27.451Z,100044.88
2019-04-28T04:08:00.905Z,100040.30
2019-04-28T04:10:42.201Z,100050.20
2019-04-28T04:13:19.995Z,100042.10
2019-04-28T04:15:54.144Z,100047.37
2019-04-28T04:18:27.402Z,100050.80
2019-04-28T04:21:00.767Z,100054.05
2019-04-28T04:23:31.357Z,100051.73
2019-04-28T04:26:02.559Z,100058.98
2019-04-28T04:28:33.736Z,100065.64
2019-04-28T04:31:05.079Z,100063.75
2019-04-28T04:33:36.252Z,100062.03
2019-04-28T04:36:07.331Z,100060.87
2019-04-28T04:38:43.322Z,100060.87
2019-04-28T04:41:11.477Z,100062.42
2019-04-28T04:43:42.799Z,100056.11
2019-04-28T04:46:16.875Z,100058.20
2019-04-28T04:48:50.571Z,100059.31
2019-04-28T04:51:21.593Z,100060.63
2019-04-28T04:53:53.118Z,100056.05
2019-04-28T04:56:24.241Z,100061.55
2019-04-28T04:58:55.429Z,100061.72
2019-04-28T05:01:30.310Z,100068.61
2019-04-28T05:04:05.426Z,100069.73
2019-04-28T05:06:41.206Z,100067.34
2019-04-28T05:09:11.318Z,100060.46
2019-04-28T05:11:42.527Z,100064.64
2019-04-28T05:14:13.899Z,100065.48
2019-04-28T05:16:45.048Z,100066.05
2019-04-28T05:19:16.262Z,100066.39
2019-04-28T05:21:47.347Z,100066.39
2019-04-28T05:24:25.885Z,100065.77
2019-04-28T05:26:57.114Z,100064.43
2019-04-28T05:29:28.291Z,100065.13
2019-04-28T05:32:03.128Z,100068.02
2019-04-28T05:34:32.167Z,100070.09
2019-04-28T05:37:04.206Z,100072.69
2019-04-28T05:39:37.666Z,100073.36
2019-04-28T05:42:09.751Z,100077.67
2019-04-28T05:44:41.027Z,100075.88
2019-04-28T05:47:12.139Z,100077.42
2019-04-28T05:49:49.806Z,100076.64
2019-04-28T05:52:40.336Z,100073.33
2019-04-28T05:55:14.150Z,100073.61
2019-04-28T05:57:47.044Z,100068.78
2019-04-28T06:00:22.572Z,100073.08
2019-04-28T06:02:56.899Z,100072.50
2019-04-28T06:05:27.382Z,100073.11
2019-04-28T06:08:11.924Z,100069.76
2019-04-28T06:10:43.116Z,100075.59
2019-04-28T06:13:14.294Z,100075.88
2019-04-28T06:15:45.491Z,100076.12
2019-04-28T06:18:16.645Z,100076.91
2019-04-28T06:20:49.652Z,100073.75
2019-04-28T06:23:20.790Z,100072.62
2019-04-28T06:25:52.775Z,100068.73
2019-04-28T06:28:24.067Z,100071.22
2019-04-28T06:30:55.275Z,100070.05
2019-04-28T06:33:26.496Z,100074.23
2019-04-28T06:35:57.606Z,100075.02
2019-04-28T06:38:28.743Z,100073.95
2019-04-28T06:41:00.073Z,100076.72
2019-04-28T06:43:31.205Z,100073.27
2019-04-28T06:46:02.410Z,100078.60
2019-04-28T06:48:33.641Z,100078.41
2019-04-28T06:51:04.855Z,100077.44
2019-04-28T06:53:36.181Z,100076.76
2019-04-28T06:56:07.536Z,100067.72
2019-04-28T06:58:38.754Z,100068.06
2019-04-28T07:01:10.044Z,100066.53
2019-04-28T07:03:41.464Z,100070.82
2019-04-28T07:06:12.669Z,100055.84
2019-04-28T07:08:43.904Z,100054.27
2019-04-28T07:11:15.053Z,100043.34
2019-04-28T07:13:47.399Z,100044.09
2019-04-28T07:16:18.724Z,100044.09
2019-04-28T07:18:49.910Z,100049.72
2019-04-28T07:21:25.520Z,100046.28
2019-04-28T07:23:56.798Z,100047.67
2019-04-28T07:26:28.047Z,100044.95
2019-04-28T07:28:59.199Z,100050.73
2019-04-28T07:31:30.522Z,100047.13
2019-04-28T07:34:03.082Z,100050.73
2019-04-28T07:36:34.297Z,100055.62
2019-04-28T07:39:07.131Z,100060.69
2019-04-28T07:41:38.162Z,100068.92
2019-04-28T07:44:09.585Z,100072.78
2019-04-28T07:46:40.816Z,100067.27
2019-04-28T07:49:12.902Z,100067.61
2019-04-28T07:51:54.795Z,100058.73
2019-04-28T07:54:26.343Z,100055.81
2019-04-28T07:56:58.478Z,100044.11
2019-04-28T07:59:29.931Z,100042.77
2019-04-28T08:02:01.105Z,100054.50
2019-04-28T08:04:32.455Z,100052.53
2019-04-28T08:07:03.552Z,100053.45
2019-04-28T08:09:35.873Z,100049.55
2019-04-28T08:12:07.132Z,100049.78
2019-04-28T08:14:38.346Z,100039.83
2019-04-28T08:17:10.696Z,100040.73
2019-04-28T08:19:41.839Z,100041.83
2019-04-28T08:22:12.816Z,100037.41
2019-04-28T08:24:43.864Z,100040.86
2019-04-28T08:27:15.040Z,100033.94
2019-04-28T08:29:57.799Z,100029.96
2019-04-28T08:32:21.243Z,100032.47
2019-04-28T08:34:52.401Z,100031.04
2019-04-28T08:37:23.483Z,100039.92
2019-04-28T08:39:54.566Z,100036.95
2019-04-28T08:42:25.638Z,100038.06
2019-04-28T08:44:56.752Z,100024.27
2019-04-28T08:47:27.703Z,100031.27
2019-04-28T08:49:58.767Z,100029.58
2019-04-28T08:52:29.912Z,100029.39
2019-04-28T08:55:00.997Z,100030.70
2019-04-28T08:57:32.020Z,100030.70
2019-04-28T09:00:04.203Z,100026.75
2019-04-28T09:02:36.711Z,100017.60
2019-04-28T09:05:08.412Z,100017.60
2019-04-28T09:07:39.387Z,100008.00
2019-04-28T09:10:10.422Z,100009.67
2019-04-28T09:12:41.529Z,100015.42
2019-04-28T09:15:12.497Z,100022.56
2019-04-28T09:17:44.970Z,100011.58
2019-04-28T09:20:16.258Z,100021.22
2019-04-28T09:22:47.319Z,100013.16
2019-04-28T09:25:18.559Z,100013.30
2019-04-28T09:27:49.683Z,100014.64
2019-04-28T09:30:20.840Z,100012.42
2019-04-28T09:32:52.025Z,100019.50
2019-04-28T09:35:23.135Z,100015.85
2019-04-28T09:37:54.224Z,100014.69
2019-04-28T09:40:25.332Z,100015.69
2019-04-28T09:42:57.883Z,100010.36
2019-04-28T09:45:30.627Z,100019.50
2019-04-28T09:48:01.555Z,100016.70
2019-04-28T09:50:32.608Z,100014.52
2019-04-28T09:53:03.621Z,100020.25
2019-04-28T09:55:34.752Z,100025.09
2019-04-28T09:58:06.022Z,100012.63
2019-04-28T10:00:39.846Z,100019.09
2019-04-28T10:03:11.252Z,100016.78
2019-04-28T10:05:42.354Z,100020.80
2019-04-28T10:08:13.463Z,100014.69
2019-04-28T10:10:44.597Z,100022.02
2019-04-28T10:13:15.689Z,100021.05
2019-04-28T10:15:46.911Z,100021.64
2019-04-28T10:18:18.102Z,100023.95
2019-04-28T10:20:49.225Z,100022.61
2019-04-28T10:23:20.358Z,100031.53
2019-04-28T10:25:51.416Z,100026.76
2019-04-28T10:28:22.639Z,100026.88
2019-04-28T10:30:53.737Z,100027.52
2019-04-28T10:33:24.858Z,100022.02
2019-04-28T10:35:55.983Z,100022.27
2019-04-28T10:38:26.910Z,100013.26
2019-04-28T10:40:59.703Z,100019.34
2019-04-28T10:43:30.948Z,100017.28
2019-04-28T10:46:02.159Z,100017.50
2019-04-28T10:48:33.241Z,100010.45
2019-04-28T10:51:04.760Z,100010.78
2019-04-28T10:53:35.875Z,100012.12
2019-04-28T10:56:07.092Z,100008.48
2019-04-28T10:58:38.195Z,100008.48
2019-04-28T11:01:09.331Z,100005.92
2019-04-28T11:03:42.042Z,100005.12
2019-04-28T11:06:13.122Z,100002.94
2019-04-28T11:08:51.646Z,99998.02
2019-04-28T11:11:24.408Z,100003.75
2019-04-28T11:13:55.464Z,100003.88
2019-04-28T11:16:28.242Z,100005.34
2019-04-28T11:18:59.498Z,100011.34
2019-04-28T11:21:30.731Z,100004.62
2019-04-28T11:24:02.063Z,100012.44
2019-04-28T11:26:33.225Z,100023.67
2019-04-28T11:29:04.434Z,100015.96
2019-04-28T11:31:35.584Z,100013.53
2019-04-28T11:34:14.004Z,100010.37
2019-04-28T11:36:45.124Z,100005.73
2019-04-28T11:39:18.211Z,100005.35
2019-04-28T11:41:49.409Z,100000.95
2019-04-28T11:44:20.591Z,100001.83
2019-04-28T11:46:51.822Z,99995.45
2019-04-28T11:49:22.913Z,99988.75
2019-04-28T11:51:54.015Z,99991.08
2019-04-28T11:54:25.206Z,99984.62
2019-04-28T11:56:56.415Z,99981.67
2019-04-28T11:59:27.343Z,99975.44
2019-04-28T12:01:58.493Z,99973.72
2019-04-28T12:04:29.638Z,99971.77
2019-04-28T12:07:00.800Z,99969.20
2019-04-28T12:09:42.660Z,99962.60
2019-04-28T12:12:21.385Z,99958.91
2019-04-28T12:14:57.363Z,99959.92
2019-04-28T12:17:46.666Z,99954.17
2019-04-28T12:20:19.603Z,99955.52
2019-04-28T12:22:50.751Z,99946.22
2019-04-28T12:25:21.896Z,99944.62
2019-04-28T12:27:53.004Z,99939.75
2019-04-28T12:30:24.068Z,99941.56
2019-04-28T12:32:55.038Z,99934.51
2019-04-28T12:35:25.890Z,99932.16
2019-04-28T12:37:56.931Z,99934.13
2019-04-28T12:40:28.046Z,99932.53
2019-04-28T12:43:00.549Z,99932.30
2019-04-28T12:45:35.207Z,99940.22
2019-04-28T12:48:04.295Z,99947.56
2019-04-28T12:50:37.019Z,99937.44
2019-04-28T12:53:08.193Z,99934.05
2019-04-28T12:55:39.256Z,99940.17
2019-04-28T12:58:10.345Z,99938.22
2019-04-28T13:01:01.557Z,99946.79
2019-04-28T13:03:38.500Z,99944.20
2019-04-28T13:06:17.120Z,99940.31
2019-04-28T13:08:48.147Z,99939.73
2019-04-28T13:11:19.353Z,99933.34
2019-04-28T13:13:50.411Z,99931.75
2019-04-28T13:16:21.529Z,99932.84
2019-04-28T13:18:52.556Z,99918.72
2019-04-28T13:21:23.672Z,99924.67
2019-04-28T13:23:54.802Z,99916.13
2019-04-28T13:26:25.885Z,99916.62
2019-04-28T13:28:56.954Z,99911.47
2019-04-28T13:31:27.981Z,99910.37
2019-04-28T13:34:00.802Z,99907.22
2019-04-28T13:36:32.008Z,99899.05
2019-04-28T13:39:04.757Z,99901.95
2019-04-28T13:41:37.505Z,99895.48
2019-04-28T13:44:10.359Z,99890.92
2019-04-28T13:46:41.323Z,99886.05
2019-04-28T13:49:14.028Z,99884.72
2019-04-28T13:51:45.313Z,99888.73
2019-04-28T13:54:17.892Z,99868.75
2019-04-28T13:56:48.893Z,99884.47
2019-04-28T13:59:20.798Z,99883.12
2019-04-28T14:01:53.541Z,99885.94
2019-04-28T14:04:26.171Z,99888.06
2019-04-28T14:06:57.791Z,99887.56
2019-04-28T14:09:29.028Z,99884.98
2019-04-28T14:12:00.222Z,99885.94
2019-04-28T14:14:31.479Z,99883.27
2019-04-28T14:17:02.544Z,99884.98
2019-04-28T14:19:33.617Z,99887.28
2019-04-28T14:22:04.798Z,99886.19
2019-04-28T14:24:35.884Z,99882.54
2019-04-28T14:27:06.900Z,99878.02
2019-04-28T14:29:37.932Z,99877.91
2019-04-28T14:32:08.959Z,99876.56
2019-04-28T14:34:40.195Z,99876.44
2019-04-28T14:37:11.437Z,99874.00
2019-04-28T14:39:42.552Z,99875.59
2019-04-28T14:42:13.768Z,99876.05
2019-04-28T14:44:44.899Z,99873.38
2019-04-28T14:47:15.997Z,99873.03
2019-04-28T14:49:47.177Z,99870.35
2019-04-28T14:52:18.277Z,99869.02
2019-04-28T14:54:49.287Z,99860.84
2019-04-28T14:57:20.613Z,99872.03
2019-04-28T14:59:51.639Z,99872.78
2019-04-28T15:02:24.276Z,99867.42
2019-04-28T15:05:03.086Z,99867.80
2019-04-28T15:07:39.089Z,99862.66
2019-04-28T15:10:20.266Z,99861.44
2019-04-28T15:12:51.629Z,99856.08
2019-04-28T15:15:22.993Z,99854.73
2019-04-28T15:17:53.967Z,99849.37
2019-04-28T15:20:25.081Z,99853.06
2019-04-28T15:22:56.295Z,99849.37
2019-04-28T15:25:28.396Z,99843.30
2019-04-28T15:27:59.407Z,99848.91
2019-04-28T15:30:30.506Z,99847.91
2019-04-28T15:33:01.499Z,99847.06
2019-04-28T15:35:32.820Z,99847.19
2019-04-28T15:38:03.989Z,99844.26
2019-04-28T15:40:36.673Z,99844.50
2019-04-28T15:43:07.900Z,99834.50
2019-04-28T15:45:39.238Z,99839.61
2019-04-28T15:48:10.502Z,99840.69
2019-04-28T15:50:41.640Z,99843.15
2019-04-28T15:53:12.686Z,99834.86
2019-04-28T15:55:45.340Z,99836.06
2019-04-28T15:58:32.856Z,99834.94
2019-04-28T16:01:04.787Z,99832.13
2019-04-28T16:03:35.950Z,99830.31
2019-04-28T16:06:06.996Z,99819.33
2019-04-28T16:08:38.059Z,99830.77
2019-04-28T16:11:09.088Z,99826.61
2019-04-28T16:13:40.071Z,99826.86
2019-04-28T16:16:11.166Z,99832.83
2019-04-28T16:18:42.275Z,99796.31
2019-04-28T16:21:13.472Z,99808.99
2019-04-28T16:23:44.623Z,99832.30
2019-04-28T16:26:15.730Z,99832.30
2019-04-28T16:28:46.721Z,99837.02
2019-04-28T16:31:20.281Z,99836.70
2019-04-28T16:33:51.272Z,99836.70
2019-04-28T16:36:22.377Z,99843.26
2019-04-28T16:38:53.395Z,99829.31
2019-04-28T16:41:28.648Z,99850.63
2019-04-28T16:44:17.123Z,99847.92
2019-04-28T16:46:48.421Z,99856.02
2019-04-28T16:49:19.570Z,99852.12
2019-04-28T16:51:50.742Z,99852.81
2019-04-28T16:54:21.858Z,99858.41
2019-04-28T16:56:59.288Z,99866.66
2019-04-28T16:59:32.440Z,99869.06
2019-04-28T17:02:11.571Z,99869.88
2019-04-28T17:04:42.633Z,99873.86
2019-04-28T17:07:13.820Z,99874.20
2019-04-28T17:09:45.070Z,99885.13
2019-04-28T17:12:16.369Z,99886.01
2019-04-28T17:14:49.235Z,99887.19
2019-04-28T17:17:20.466Z,99884.36
2019-04-28T17:19:51.731Z,99890.12
2019-04-28T17:22:22.841Z,99892.76
2019-04-28T17:24:53.958Z,99892.11
2019-04-28T17:27:25.216Z,99897.33
2019-04-28T17:29:56.565Z,99903.73
2019-04-28T17:32:27.836Z,99905.76
2019-04-28T17:34:59.013Z,99908.49
2019-04-28T17:37:30.299Z,99913.67
2019-04-28T17:40:01.474Z,99912.17
2019-04-28T17:42:34.154Z,99920.03
2019-04-28T17:45:07.281Z,99919.86
2019-04-28T17:47:38.488Z,99925.78
2019-04-28T17:50:11.637Z,99930.39
2019-04-28T17:52:42.976Z,99931.45
2019-04-28T17:55:14.284Z,99941.64
2019-04-28T17:57:45.550Z,99941.13
2019-04-28T18:00:28.443Z,99940.52
2019-04-28T18:03:10.631Z,99945.48
2019-04-28T18:05:45.118Z,99951.59
2019-04-28T18:08:21.161Z,99950.82
2019-04-28T18:10:49.053Z,99958.27
2019-04-28T18:13:20.379Z,99959.61
2019-04-28T18:15:55.992Z,99968.68
2019-04-28T18:18:34.183Z,99971.45
2019-04-28T18:21:05.024Z,99971.69
2019-04-28T18:23:36.331Z,99967.84
2019-04-28T18:26:07.632Z,99973.12
2019-04-28T18:28:38.791Z,99974.91
2019-04-28T18:31:14.783Z,99972.63
2019-04-28T18:34:03.922Z,99973.02
2019-04-28T18:36:39.756Z,99975.30
2019-04-28T18:39:18.839Z,99973.95
2019-04-28T18:41:54.484Z,99971.78
2019-04-28T18:44:25.083Z,99972.24
2019-04-28T18:46:56.181Z,99971.86
2019-04-28T18:49:27.317Z,99976.84
2019-04-28T18:51:58.433Z,99968.83
2019-04-28T18:54:29.700Z,99963.84
2019-04-28T18:57:01.251Z,99970.52
2019-04-28T18:59:34.303Z,99971.23
2019-04-28T19:02:09.979Z,99965.95
2019-04-28T19:04:40.521Z,99962.63
2019-04-28T19:07:12.972Z,99962.21
2019-04-28T19:10:00.614Z,99969.06
2019-04-28T19:12:40.568Z,99967.94
2019-04-28T19:15:28.663Z,99964.14
2019-04-28T19:18:10.528Z,99964.59
2019-04-28T19:20:41.661Z,99966.53
2019-04-28T19:23:12.857Z,99965.86
2019-04-28T19:25:44.043Z,99966.81
2019-04-28T19:28:16.576Z,99964.91
2019-04-28T19:30:47.935Z,99964.32
2019-04-28T19:33:19.264Z,99966.42
2019-04-28T19:35:50.502Z,99963.75
2019-04-28T19:38:21.618Z,99960.88
2019-04-28T19:40:52.796Z,99962.10
2019-04-28T19:43:23.928Z,99969.55
2019-04-28T19:45:56.602Z,99971.23
2019-04-28T19:48:27.839Z,99971.06
2019-04-28T19:50:58.882Z,99973.84
2019-04-28T19:53:31.799Z,99972.85
2019-04-28T19:56:04.522Z,99973.62
2019-04-28T19:58:39.951Z,99977.98
2019-04-28T20:01:15.603Z,99978.47
2019-04-28T20:03:45.919Z,99980.66
2019-04-28T20:06:16.943Z,99980.52
2019-04-28T20:08:47.979Z,99985.05
2019-04-28T20:11:19.198Z,99985.81
2019-04-28T20:13:50.163Z,99986.27
2019-04-28T20:16:21.164Z,99985.33
2019-04-28T20:18:52.236Z,99985.81
2019-04-28T20:21:23.378Z,99988.48
2019-04-28T20:23:54.363Z,99989.05
2019-04-28T20:26:25.471Z,99991.16
2019-04-28T20:28:56.748Z,99987.15
2019-04-28T20:31:28.132Z,99992.49
2019-04-28T20:33:59.236Z,99996.11
2019-04-28T20:36:44.164Z,99997.55
2019-04-28T20:39:32.110Z,99996.78
2019-04-28T20:42:21.170Z,99999.94
2019-04-28T20:44:52.479Z,99998.71
2019-04-28T20:47:23.752Z,99993.69
2019-04-28T20:49:54.904Z,99998.05
2019-04-28T20:52:26.088Z,99993.30
2019-04-28T20:54:57.167Z,99987.30
2019-04-28T20:57:28.411Z,99997.52
2019-04-28T20:59:59.561Z,99995.80
2019-04-28T21:02:31.003Z,100003.03
2019-04-28T21:05:02.123Z,100005.70
2019-04-28T21:07:33.615Z,100006.13
2019-04-28T21:10:05.676Z,100011.45
2019-04-28T21:12:37.083Z,100009.84
2019-04-28T21:15:08.318Z,100007.73
2019-04-28T21:17:39.577Z,100011.84
2019-04-28T21:20:10.684Z,100016.34
2019-04-28T21:22:42.891Z,100019.11
2019-04-28T21:25:14.609Z,100011.66
2019-04-28T21:27:45.874Z,100020.27
2019-04-28T21:30:17.206Z,100016.47
2019-04-28T21:32:48.609Z,100017.80
2019-04-28T21:35:19.797Z,100017.97
2019-04-28T21:37:50.898Z,100018.95
2019-04-28T21:40:22.565Z,100021.72
2019-04-28T21:43:11.232Z,100021.05
2019-04-28T21:46:00.439Z,100021.80
2019-04-28T21:48:33.344Z,100024.11
2019-04-28T21:51:04.446Z,100023.72
2019-04-28T21:53:35.595Z,100027.72
2019-04-28T21:56:06.774Z,100024.11
2019-04-28T21:58:37.919Z,100020.45
2019-04-28T22:01:09.243Z,100029.80
2019-04-28T22:03:40.481Z,100029.80
2019-04-28T22:06:11.866Z,100025.73
2019-04-28T22:08:42.965Z,100020.00
2019-04-28T22:11:14.057Z,100025.23
2019-04-28T22:13:45.112Z,100023.13
2019-04-28T22:16:16.141Z,100017.79
2019-04-28T22:18:47.354Z,100021.34
2019-04-28T22:21:18.393Z,100012.45
2019-04-28T22:23:54.183Z,100011.70
2019-04-28T22:26:45.232Z,100007.70
2019-04-28T22:29:16.110Z,100003.44
2019-04-28T22:31:47.667Z,100006.95
2019-04-28T22:34:18.899Z,100006.95
2019-04-28T22:36:50.053Z,100015.55
2019-04-28T22:39:21.366Z,100006.66
2019-04-28T22:41:52.677Z,100000.59
2019-04-28T22:44:23.817Z,99999.71
2019-04-28T22:46:54.948Z,100000.86
2019-04-28T22:49:26.762Z,99998.19
2019-04-28T22:51:57.818Z,100000.96
2019-04-28T22:54:42.912Z,100001.45
2019-04-28T22:57:32.395Z,100002.39
2019-04-28T23:00:05.839Z,100000.70
2019-04-28T23:02:38.648Z,100004.42
2019-04-28T23:05:09.749Z,99997.92
2019-04-28T23:07:40.768Z,99991.75
2019-04-28T23:10:12.315Z,99992.59
2019-04-28T23:12:43.431Z,99989.08
2019-04-28T23:15:14.623Z,99989.08
2019-04-28T23:17:45.698Z,99987.52
2019-04-28T23:20:16.800Z,99986.39
2019-04-28T23:22:49.666Z,99979.15
2019-04-28T23:25:20.766Z,99982.86
2019-04-28T23:27:51.930Z,99991.16
2019-04-28T23:30:38.533Z,99990.03
2019-04-28T23:33:09.873Z,99986.28
2019-04-28T23:35:40.986Z,99982.77
2019-04-28T23:38:13.168Z,99988.11
2019-04-28T23:40:46.429Z,99998.03
2019-04-28T23:43:19.168Z,100001.25
2019-04-28T23:45:50.286Z,99995.34
2019-04-28T23:48:21.329Z,99997.45
2019-04-28T23:51:03.106Z,99996.78
2019-04-28T23:53:51.716Z,99990.02
2019-04-28T23:56:22.896Z,99996.48
2019-04-28T23:58:53.897Z,99998.77
